createdAt,value
2019-04-06T00:01:25.427Z,9.80
2019-04-06T00:03:54.154Z,10.35
2019-04-06T00:06:22.878Z,10.13
2019-04-06T00:08:51.554Z,10.90
2019-04-06T00:11:20.279Z,10.13
2019-04-06T00:13:48.942Z,10.40
2019-04-06T00:16:17.708Z,9.65
2019-04-06T00:18:46.339Z,10.75
2019-04-06T00:21:15.066Z,10.40
2019-04-06T00:23:43.726Z,10.50
2019-04-06T00:26:12.437Z,10.85
2019-04-06T00:28:41.050Z,10.45
2019-04-06T00:31:27.715Z,10.88
2019-04-06T00:33:57.475Z,10.50
2019-04-06T00:36:26.211Z,10.08
2019-04-06T00:38:54.863Z,10.70
2019-04-06T00:41:23.657Z,9.93
2019-04-06T00:43:52.386Z,11.22
2019-04-06T00:46:21.122Z,9.95
2019-04-06T00:48:49.859Z,11.15
2019-04-06T00:51:18.659Z,11.85
2019-04-06T00:53:47.326Z,11.83
2019-04-06T00:56:16.115Z,12.80
2019-04-06T00:58:44.850Z,13.15
2019-04-06T01:01:14.155Z,13.58
2019-04-06T01:03:42.813Z,13.78
2019-04-06T01:06:13.898Z,13.88
2019-04-06T01:08:42.630Z,15.63
2019-04-06T01:11:11.438Z,15.53
2019-04-06T01:13:40.170Z,15.90
2019-04-06T01:16:10.787Z,16.85
2019-04-06T01:18:39.550Z,18.42
2019-04-06T01:21:08.433Z,18.75
2019-04-06T01:23:37.167Z,16.40
2019-04-06T01:26:07.516Z,16.73
2019-04-06T01:28:36.411Z,14.40
2019-04-06T01:31:05.146Z,11.25
2019-04-06T01:33:33.879Z,10.00
2019-04-06T01:36:02.606Z,9.65
2019-04-06T01:38:31.399Z,9.58
2019-04-06T01:41:00.065Z,9.73
2019-04-06T01:43:28.866Z,9.00
2019-04-06T01:45:58.844Z,9.18
2019-04-06T01:48:27.626Z,10.43
2019-04-06T01:50:56.370Z,8.93
2019-04-06T01:53:25.180Z,9.88
2019-04-06T01:55:53.830Z,9.25
2019-04-06T01:58:22.673Z,9.70
2019-04-06T02:00:58.870Z,9.55
2019-04-06T02:03:27.670Z,9.73
2019-04-06T02:05:56.399Z,10.20
2019-04-06T02:08:25.202Z,9.73
2019-04-06T02:10:53.858Z,9.85
2019-04-06T02:13:22.658Z,9.50
2019-04-06T02:15:51.427Z,10.98
2019-04-06T02:18:20.202Z,8.30
2019-04-06T02:20:49.465Z,9.05
2019-04-06T02:23:18.271Z,9.40
2019-04-06T02:25:46.938Z,9.78
2019-04-06T02:28:15.840Z,8.80
2019-04-06T02:30:54.847Z,10.65
2019-04-06T02:33:33.962Z,9.13
2019-04-06T02:36:15.333Z,8.53
2019-04-06T02:38:50.981Z,9.53
2019-04-06T02:41:21.367Z,8.10
2019-04-06T02:43:50.104Z,8.30
2019-04-06T02:46:18.750Z,9.48
2019-04-06T02:48:47.514Z,8.28
2019-04-06T02:51:16.286Z,8.65
2019-04-06T02:53:45.031Z,8.70
2019-04-06T02:56:15.505Z,9.10
2019-04-06T02:58:46.353Z,8.63
2019-04-06T03:01:15.168Z,7.57
2019-04-06T03:03:43.990Z,7.92
2019-04-06T03:06:12.796Z,8.58
2019-04-06T03:08:41.530Z,7.67
2019-04-06T03:11:10.327Z,7.28
2019-04-06T03:13:39.060Z,7.58
2019-04-06T03:16:07.949Z,7.25
2019-04-06T03:18:36.651Z,6.92
2019-04-06T03:21:05.401Z,7.87
2019-04-06T03:23:49.024Z,7.65
2019-04-06T03:26:04.500Z,7.30
2019-04-06T03:28:33.230Z,7.30
2019-04-06T03:31:02.022Z,7.55
2019-04-06T03:33:30.743Z,9.98
2019-04-06T03:35:59.540Z,7.87
2019-04-06T03:38:28.219Z,6.95
2019-04-06T03:40:57.000Z,7.53
2019-04-06T03:43:25.655Z,7.67
2019-04-06T03:45:54.459Z,7.37
2019-04-06T03:48:23.180Z,7.08
2019-04-06T03:50:52.049Z,6.78
2019-04-06T03:53:20.818Z,7.12
2019-04-06T03:55:49.723Z,7.00
2019-04-06T03:58:18.485Z,6.62
2019-04-06T04:00:47.372Z,6.62
2019-04-06T04:03:16.187Z,5.78
2019-04-06T04:05:44.912Z,7.70
2019-04-06T04:08:13.661Z,7.50
2019-04-06T04:10:46.867Z,6.67
2019-04-06T04:13:13.274Z,7.42
2019-04-06T04:15:43.481Z,7.25
2019-04-06T04:18:12.296Z,7.00
2019-04-06T04:20:41.060Z,6.92
2019-04-06T04:23:09.795Z,7.30
2019-04-06T04:25:40.727Z,6.85
2019-04-06T04:28:09.473Z,7.10
2019-04-06T04:30:38.232Z,7.97
2019-04-06T04:33:07.051Z,6.35
2019-04-06T04:35:36.550Z,6.65
2019-04-06T04:38:05.419Z,7.60
2019-04-06T04:40:34.225Z,8.15
2019-04-06T04:43:03.418Z,7.30
2019-04-06T04:45:32.175Z,6.62
2019-04-06T04:48:00.968Z,6.75
2019-04-06T04:50:29.651Z,7.35
2019-04-06T04:52:58.521Z,7.50
2019-04-06T04:55:27.427Z,7.08
2019-04-06T04:57:56.310Z,6.97
2019-04-06T05:00:25.063Z,6.70
2019-04-06T05:02:53.915Z,6.97
2019-04-06T05:05:22.710Z,7.00
2019-04-06T05:07:51.563Z,6.83
2019-04-06T05:10:21.398Z,7.55
2019-04-06T05:12:50.289Z,7.60
2019-04-06T05:15:31.087Z,6.62
2019-04-06T05:17:59.930Z,6.53
2019-04-06T05:20:28.699Z,7.40
2019-04-06T05:22:57.490Z,6.47
2019-04-06T05:25:26.413Z,6.78
2019-04-06T05:27:55.259Z,7.33
2019-04-06T05:30:24.283Z,7.80
2019-04-06T05:32:53.045Z,7.10
2019-04-06T05:35:21.927Z,7.17
2019-04-06T05:37:50.624Z,7.05
2019-04-06T05:40:21.365Z,6.95
2019-04-06T05:42:50.162Z,7.50
2019-04-06T05:45:21.716Z,7.62
2019-04-06T05:47:50.379Z,7.55
2019-04-06T05:50:20.200Z,7.83
2019-04-06T05:52:50.439Z,7.42
2019-04-06T05:55:19.328Z,7.80
2019-04-06T05:57:49.845Z,9.30
2019-04-06T06:00:18.727Z,8.73
2019-04-06T06:02:47.410Z,8.93
2019-04-06T06:05:16.169Z,8.08
2019-04-06T06:07:44.932Z,8.63
2019-04-06T06:10:14.158Z,8.75
2019-04-06T06:12:42.973Z,8.65
2019-04-06T06:15:11.987Z,9.65
2019-04-06T06:17:40.728Z,9.23
2019-04-06T06:20:09.466Z,7.92
2019-04-06T06:22:38.225Z,8.65
2019-04-06T06:25:07.465Z,8.90
2019-04-06T06:27:36.201Z,7.78
2019-04-06T06:30:08.536Z,8.30
2019-04-06T06:32:37.330Z,8.15
2019-04-06T06:35:07.553Z,8.03
2019-04-06T06:37:36.297Z,7.92
2019-04-06T06:40:06.707Z,8.83
2019-04-06T06:42:35.447Z,8.65
2019-04-06T06:45:06.199Z,10.13
2019-04-06T06:47:35.027Z,7.62
2019-04-06T06:50:07.763Z,9.55
2019-04-06T06:52:37.338Z,7.70
2019-04-06T06:55:06.740Z,7.67
2019-04-06T06:57:35.559Z,9.18
2019-04-06T07:00:05.723Z,8.98
2019-04-06T07:02:35.547Z,8.90
2019-04-06T07:05:05.923Z,8.45
2019-04-06T07:07:34.745Z,9.40
2019-04-06T07:10:06.120Z,9.53
2019-04-06T07:12:36.284Z,9.93
2019-04-06T07:15:06.954Z,9.73
2019-04-06T07:17:35.707Z,9.23
2019-04-06T07:20:06.327Z,9.35
2019-04-06T07:22:35.391Z,10.20
2019-04-06T07:25:06.863Z,9.45
2019-04-06T07:27:35.772Z,9.38
2019-04-06T07:30:07.798Z,10.15
2019-04-06T07:32:36.639Z,9.55
2019-04-06T07:35:06.299Z,9.35
2019-04-06T07:37:35.177Z,9.80
2019-04-06T07:40:09.105Z,9.13
2019-04-06T07:42:37.842Z,10.03
2019-04-06T07:45:09.899Z,9.30
2019-04-06T07:47:39.802Z,10.63
2019-04-06T07:50:09.154Z,11.88
2019-04-06T07:52:37.904Z,9.95
2019-04-06T07:55:08.169Z,10.05
2019-04-06T07:57:36.843Z,9.83
2019-04-06T08:00:07.107Z,10.32
2019-04-06T08:02:35.965Z,10.35
2019-04-06T08:05:05.822Z,10.70
2019-04-06T08:07:34.511Z,10.18
2019-04-06T08:10:03.632Z,10.80
2019-04-06T08:12:32.328Z,10.32
2019-04-06T08:15:01.202Z,10.38
2019-04-06T08:17:30.051Z,10.88
2019-04-06T08:19:58.776Z,10.65
2019-04-06T08:22:29.507Z,10.63
2019-04-06T08:24:58.272Z,9.95
2019-04-06T08:27:27.025Z,10.50
2019-04-06T08:29:55.967Z,11.00
2019-04-06T08:32:24.833Z,10.28
2019-04-06T08:34:53.646Z,12.85
2019-04-06T08:37:22.400Z,11.50
2019-04-06T08:39:51.345Z,11.90
2019-04-06T08:42:20.183Z,11.50
2019-04-06T08:44:48.873Z,10.98
2019-04-06T08:47:17.675Z,10.63
2019-04-06T08:49:46.461Z,10.60
2019-04-06T08:52:15.355Z,10.40
2019-04-06T08:54:44.238Z,11.00
2019-04-06T08:57:12.998Z,11.35
2019-04-06T08:59:41.760Z,9.98
2019-04-06T09:02:10.596Z,10.80
2019-04-06T09:04:39.335Z,11.57
2019-04-06T09:07:08.073Z,12.10
2019-04-06T09:09:36.799Z,10.85
2019-04-06T09:12:06.620Z,11.68
2019-04-06T09:14:35.383Z,12.00
2019-04-06T09:17:04.134Z,12.25
2019-04-06T09:19:34.641Z,11.15
2019-04-06T09:22:03.462Z,10.85
2019-04-06T09:24:32.255Z,11.55
2019-04-06T09:27:02.686Z,10.28
2019-04-06T09:29:31.878Z,11.33
2019-04-06T09:32:00.678Z,10.75
2019-04-06T09:34:31.354Z,11.12
2019-04-06T09:36:59.994Z,10.98
2019-04-06T09:39:28.815Z,11.33
2019-04-06T09:41:57.935Z,11.18
2019-04-06T09:44:31.329Z,11.55
2019-04-06T09:47:04.488Z,12.95
2019-04-06T09:49:43.676Z,12.23
2019-04-06T09:52:32.182Z,13.35
2019-04-06T09:55:02.506Z,13.10
2019-04-06T09:57:32.910Z,12.40
2019-04-06T10:00:19.211Z,11.50
2019-04-06T10:02:49.660Z,13.15
2019-04-06T10:05:22.928Z,13.30
2019-04-06T10:07:57.090Z,11.38
2019-04-06T10:10:37.096Z,12.23
2019-04-06T10:13:16.931Z,11.95
2019-04-06T10:15:53.218Z,12.55
2019-04-06T10:18:39.002Z,11.57
2019-04-06T10:21:27.566Z,11.73
2019-04-06T10:23:57.995Z,11.60
2019-04-06T10:26:28.483Z,12.07
2019-04-06T10:29:07.853Z,11.97
2019-04-06T10:31:53.257Z,12.40
2019-04-06T10:34:42.074Z,12.78
2019-04-06T10:37:28.470Z,12.75
2019-04-06T10:40:04.703Z,11.28
2019-04-06T10:42:53.489Z,11.40
2019-04-06T10:45:23.938Z,11.73
2019-04-06T10:48:02.335Z,12.35
2019-04-06T10:50:45.171Z,12.30
2019-04-06T10:53:15.858Z,11.33
2019-04-06T10:55:46.299Z,12.00
2019-04-06T10:58:22.332Z,11.45
2019-04-06T11:01:01.322Z,12.25
2019-04-06T11:03:34.413Z,11.15
2019-04-06T11:06:20.040Z,11.38
2019-04-06T11:08:50.767Z,10.48
2019-04-06T11:11:37.835Z,10.98
2019-04-06T11:14:14.491Z,10.95
2019-04-06T11:16:53.841Z,11.12
2019-04-06T11:19:30.079Z,10.80
2019-04-06T11:22:02.546Z,10.85
2019-04-06T11:24:45.088Z,10.55
2019-04-06T11:27:33.420Z,10.55
2019-04-06T11:30:20.242Z,10.13
2019-04-06T11:32:56.652Z,10.85
2019-04-06T11:35:47.174Z,11.00
2019-04-06T11:38:17.666Z,11.08
2019-04-06T11:40:48.096Z,10.72
2019-04-06T11:43:22.445Z,10.78
2019-04-06T11:46:10.210Z,11.18
2019-04-06T11:48:51.378Z,11.60
2019-04-06T11:51:27.773Z,12.30
2019-04-06T11:54:09.032Z,13.05
2019-04-06T11:56:49.711Z,12.70
2019-04-06T11:59:34.387Z,16.33
2019-04-06T12:02:04.803Z,13.20
2019-04-06T12:04:35.243Z,13.15
2019-04-06T12:07:11.463Z,12.50
2019-04-06T12:09:57.178Z,12.05
2019-04-06T12:12:43.786Z,12.25
2019-04-06T12:15:17.218Z,11.80
2019-04-06T12:17:47.682Z,12.37
2019-04-06T12:20:24.071Z,13.70
2019-04-06T12:23:03.312Z,11.35
2019-04-06T12:25:33.826Z,10.32
2019-04-06T12:28:09.753Z,12.33
2019-04-06T12:30:58.760Z,13.83
2019-04-06T12:33:29.166Z,14.07
2019-04-06T12:35:59.997Z,14.80
2019-04-06T12:38:33.676Z,10.72
2019-04-06T12:41:19.256Z,12.15
2019-04-06T12:44:06.775Z,11.97
2019-04-06T12:46:55.546Z,13.10
2019-04-06T12:49:32.431Z,17.12
2019-04-06T12:52:14.012Z,11.70
2019-04-06T12:54:57.534Z,11.65
2019-04-06T12:57:28.060Z,13.50
2019-04-06T13:00:00.326Z,12.40
2019-04-06T13:02:30.469Z,10.68
2019-04-06T13:05:12.575Z,9.60
2019-04-06T13:07:57.299Z,10.40
2019-04-06T13:10:46.033Z,9.83
2019-04-06T13:13:32.349Z,10.23
2019-04-06T13:16:18.845Z,10.20
2019-04-06T13:18:49.649Z,9.98
2019-04-06T13:21:22.016Z,9.25
2019-04-06T13:23:52.500Z,10.00
2019-04-06T13:26:39.595Z,10.90
2019-04-06T13:29:14.699Z,10.13
2019-04-06T13:31:48.827Z,10.80
2019-04-06T13:34:35.731Z,10.30
2019-04-06T13:37:19.410Z,10.32
2019-04-06T13:39:55.772Z,10.98
2019-04-06T13:43:01.933Z,10.53
2019-04-06T13:45:41.620Z,11.10
2019-04-06T13:48:27.304Z,10.93
2019-04-06T13:51:09.547Z,11.20
2019-04-06T13:53:42.784Z,10.30
2019-04-06T13:56:17.516Z,10.13
2019-04-06T13:58:47.902Z,10.82
2019-04-06T14:01:21.191Z,10.30
2019-04-06T14:03:51.579Z,10.20
2019-04-06T14:06:21.996Z,10.53
2019-04-06T14:08:55.514Z,11.83
2019-04-06T14:11:27.541Z,11.03
2019-04-06T14:14:01.750Z,10.13
2019-04-06T14:16:38.167Z,10.15
2019-04-06T14:19:27.031Z,10.35
2019-04-06T14:22:03.167Z,10.18
2019-04-06T14:24:50.719Z,11.08
2019-04-06T14:27:21.220Z,10.55
2019-04-06T14:29:51.645Z,10.88
2019-04-06T14:32:23.497Z,10.88
2019-04-06T14:34:55.049Z,9.60
2019-04-06T14:37:27.165Z,10.20
2019-04-06T14:40:09.584Z,9.53
2019-04-06T14:42:40.072Z,10.05
2019-04-06T14:45:31.048Z,10.58
2019-04-06T14:48:09.449Z,10.07
2019-04-06T14:50:55.035Z,10.50
2019-04-06T14:53:28.056Z,9.43
2019-04-06T14:56:04.680Z,10.88
2019-04-06T14:58:53.747Z,10.95
2019-04-06T15:01:41.530Z,10.32
2019-04-06T15:04:12.348Z,11.20
2019-04-06T15:06:42.759Z,10.48
2019-04-06T15:09:23.050Z,11.48
2019-04-06T15:12:05.910Z,12.65
2019-04-06T15:14:54.735Z,11.75
2019-04-06T15:17:41.221Z,11.22
2019-04-06T15:20:11.870Z,11.53
2019-04-06T15:22:42.359Z,12.88
2019-04-06T15:25:21.569Z,13.05
2019-04-06T15:27:52.117Z,12.00
2019-04-06T15:30:28.354Z,12.55
2019-04-06T15:33:15.426Z,12.65
2019-04-06T15:35:48.885Z,11.93
2019-04-06T15:38:36.477Z,12.33
2019-04-06T15:41:23.808Z,12.03
2019-04-06T15:43:54.157Z,12.15
2019-04-06T15:46:24.583Z,12.73
2019-04-06T15:48:55.440Z,13.20
2019-04-06T15:51:25.920Z,13.50
2019-04-06T15:54:07.659Z,13.98
2019-04-06T15:56:54.420Z,14.43
2019-04-06T15:59:45.557Z,13.90
2019-04-06T16:02:19.516Z,13.98
2019-04-06T16:04:50.441Z,13.95
2019-04-06T16:07:30.875Z,14.65
2019-04-06T16:10:09.886Z,14.53
2019-04-06T16:12:46.240Z,15.43
2019-04-06T16:15:33.019Z,16.00
2019-04-06T16:18:09.397Z,16.02
2019-04-06T16:20:58.299Z,16.85
2019-04-06T16:24:01.734Z,17.92
2019-04-06T16:26:32.007Z,18.82
2019-04-06T16:29:02.626Z,19.65
2019-04-06T16:31:43.592Z,18.70
2019-04-06T16:34:16.955Z,18.48
2019-04-06T16:37:03.976Z,19.42
2019-04-06T16:39:36.283Z,20.30
2019-04-06T16:42:06.792Z,21.37
2019-04-06T16:44:37.590Z,20.25
2019-04-06T16:47:24.936Z,21.37
2019-04-06T16:50:01.719Z,21.87
2019-04-06T16:52:49.042Z,22.85
2019-04-06T16:55:25.857Z,25.82
2019-04-06T16:58:01.947Z,27.80
2019-04-06T17:00:32.300Z,29.50
2019-04-06T17:03:19.309Z,31.40
2019-04-06T17:05:55.754Z,29.45
2019-04-06T17:08:42.459Z,31.62
2019-04-06T17:11:12.963Z,33.50
2019-04-06T17:13:43.515Z,32.13
2019-04-06T17:16:34.203Z,38.70
2019-04-06T17:19:20.841Z,31.75
2019-04-06T17:22:00.067Z,31.87
2019-04-06T17:24:35.089Z,28.45
2019-04-06T17:27:17.255Z,28.95
2019-04-06T17:29:47.724Z,31.10
2019-04-06T17:32:18.314Z,35.05
2019-04-06T17:34:54.291Z,34.10
2019-04-06T17:37:30.548Z,40.25
2019-04-06T17:40:16.048Z,40.20
2019-04-06T17:42:46.455Z,35.52
2019-04-06T17:45:19.703Z,36.68
2019-04-06T17:48:07.090Z,40.95
2019-04-06T17:50:37.690Z,37.20
2019-04-06T17:53:20.150Z,39.83
2019-04-06T17:55:50.736Z,50.70
2019-04-06T17:58:33.253Z,66.35
2019-04-06T18:01:09.929Z,68.92
2019-04-06T18:03:43.998Z,83.30
2019-04-06T18:06:17.224Z,80.38
2019-04-06T18:08:56.818Z,76.20
2019-04-06T18:11:27.282Z,71.07
2019-04-06T18:13:56.331Z,75.22
2019-04-06T18:16:29.294Z,86.08
2019-04-06T18:18:58.131Z,89.15
2019-04-06T18:21:27.021Z,66.70
2019-04-06T18:23:55.942Z,58.73
2019-04-06T18:26:25.026Z,57.80
2019-04-06T18:28:53.749Z,68.05
2019-04-06T18:31:38.316Z,80.77
2019-04-06T18:34:10.818Z,83.67
2019-04-06T18:36:53.959Z,60.10
2019-04-06T18:39:24.283Z,68.85
2019-04-06T18:41:53.577Z,75.00
2019-04-06T18:44:23.050Z,63.52
2019-04-06T18:46:52.081Z,45.45
2019-04-06T18:49:23.184Z,46.92
2019-04-06T18:51:56.656Z,49.27
2019-04-06T18:54:25.512Z,55.00
2019-04-06T18:56:55.862Z,50.45
2019-04-06T18:59:24.861Z,50.10
2019-04-06T19:01:54.109Z,49.00
2019-04-06T19:04:23.107Z,53.40
2019-04-06T19:06:52.533Z,53.85
2019-04-06T19:09:24.019Z,46.70
2019-04-06T19:11:56.005Z,50.05
2019-04-06T19:14:22.521Z,44.03
2019-04-06T19:16:51.459Z,40.33
2019-04-06T19:19:20.520Z,42.33
2019-04-06T19:21:49.520Z,46.90
2019-04-06T19:24:20.670Z,46.85
2019-04-06T19:26:49.551Z,45.43
2019-04-06T19:29:18.357Z,44.25
2019-04-06T19:31:49.470Z,44.95
2019-04-06T19:34:20.657Z,48.33
2019-04-06T19:36:48.696Z,44.95
2019-04-06T19:39:19.772Z,41.58
2019-04-06T19:41:48.326Z,41.77
2019-04-06T19:44:17.276Z,42.48
2019-04-06T19:46:46.260Z,39.55
2019-04-06T19:49:15.277Z,35.68
2019-04-06T19:51:44.204Z,34.83
2019-04-06T19:54:14.147Z,36.08
2019-04-06T19:56:43.057Z,36.10
2019-04-06T19:59:13.544Z,33.65
2019-04-06T20:01:45.818Z,33.50
2019-04-06T20:04:15.075Z,36.70
2019-04-06T20:06:45.757Z,31.48
2019-04-06T20:09:15.069Z,34.13
2019-04-06T20:11:47.561Z,34.25
2019-04-06T20:14:16.431Z,32.05
2019-04-06T20:16:45.345Z,29.92
2019-04-06T20:19:15.428Z,30.15
2019-04-06T20:21:44.245Z,29.12
2019-04-06T20:24:13.039Z,27.05
2019-04-06T20:26:43.971Z,27.40
2019-04-06T20:29:15.213Z,26.87
2019-04-06T20:31:44.163Z,24.05
2019-04-06T20:34:16.331Z,22.80
2019-04-06T20:36:45.648Z,21.07
2019-04-06T20:39:14.632Z,20.40
2019-04-06T20:41:43.812Z,20.17
2019-04-06T20:44:16.670Z,20.25
2019-04-06T20:46:45.207Z,19.82
2019-04-06T20:49:17.774Z,19.17
2019-04-06T20:51:48.831Z,17.98
2019-04-06T20:54:18.570Z,14.18
2019-04-06T20:56:53.873Z,18.17
2019-04-06T20:59:18.304Z,19.05
2019-04-06T21:01:47.352Z,18.27
2019-04-06T21:04:16.648Z,18.95
2019-04-06T21:06:48.126Z,17.05
2019-04-06T21:09:17.264Z,17.17
2019-04-06T21:11:48.123Z,17.67
2019-04-06T21:14:16.995Z,16.82
2019-04-06T21:16:45.767Z,16.90
2019-04-06T21:19:16.336Z,16.60
2019-04-06T21:21:45.199Z,15.90
2019-04-06T21:24:14.183Z,16.30
2019-04-06T21:26:45.308Z,16.85
2019-04-06T21:29:14.241Z,16.07
2019-04-06T21:31:42.975Z,16.00
2019-04-06T21:34:14.338Z,15.90
2019-04-06T21:36:42.681Z,15.43
2019-04-06T21:39:12.101Z,24.47
2019-04-06T21:41:41.664Z,15.95
2019-04-06T21:44:11.239Z,17.62
2019-04-06T21:46:40.408Z,16.00
2019-04-06T21:49:09.444Z,17.67
2019-04-06T21:51:39.253Z,16.45
2019-04-06T21:54:09.330Z,16.37
2019-04-06T21:56:38.543Z,18.40
2019-04-06T21:59:09.766Z,18.95
2019-04-06T22:01:41.233Z,16.37
2019-04-06T22:04:13.530Z,16.40
2019-04-06T22:06:40.313Z,16.05
2019-04-06T22:09:11.142Z,17.52
2019-04-06T22:11:39.986Z,17.42
2019-04-06T22:14:10.026Z,16.70
2019-04-06T22:16:39.135Z,16.48
2019-04-06T22:19:08.092Z,19.40
2019-04-06T22:21:37.373Z,16.87
2019-04-06T22:24:06.289Z,18.48
2019-04-06T22:26:35.145Z,18.05
2019-04-06T22:29:04.027Z,21.68
2019-04-06T22:31:33.275Z,18.67
2019-04-06T22:34:02.173Z,16.62
2019-04-06T22:36:33.034Z,16.80
2019-04-06T22:39:03.155Z,16.07
2019-04-06T22:41:32.078Z,21.25
2019-04-06T22:44:00.866Z,15.78
2019-04-06T22:46:29.782Z,15.18
2019-04-06T22:48:58.584Z,15.08
2019-04-06T22:51:27.719Z,15.20
2019-04-06T22:53:58.244Z,13.75
2019-04-06T22:56:27.204Z,15.48
2019-04-06T22:58:56.019Z,16.00
2019-04-06T23:01:28.876Z,16.85
2019-04-06T23:04:14.363Z,14.35
2019-04-06T23:06:46.041Z,13.93
2019-04-06T23:09:15.078Z,13.48
2019-04-06T23:11:45.907Z,14.20
2019-04-06T23:14:14.360Z,13.68
2019-04-06T23:16:43.705Z,13.60
2019-04-06T23:19:14.888Z,14.25
2019-04-06T23:21:44.939Z,15.32
2019-04-06T23:24:14.743Z,14.45
2019-04-06T23:26:43.763Z,13.98
2019-04-06T23:29:12.654Z,14.20
2019-04-06T23:31:41.720Z,14.47
2019-04-06T23:34:11.712Z,14.65
2019-04-06T23:36:40.669Z,14.23
2019-04-06T23:39:10.821Z,13.55
2019-04-06T23:41:41.767Z,14.35
2019-04-06T23:44:10.602Z,15.93
2019-04-06T23:46:41.868Z,14.50
2019-04-06T23:49:12.067Z,15.80
2019-04-06T23:51:42.712Z,15.78
2019-04-06T23:54:11.630Z,15.90
2019-04-06T23:56:42.866Z,15.40
2019-04-06T23:59:12.079Z,14.78
